Capitol Logistics 438


KPHL
Philadelphia International Airport
Philadelphia, Pennsylvania, US
KRFD
Chicago/Rockford International Airport
Rockford, Illinois, US

Activity Log

Date Flight Route Aircraft Duration
10/10/2019 CPX438 PTW SARAA RAV PSB J60 JOT QUOTE B738 2h 00m
09/26/2019 CPX438 PTW SARAA RAV PSB J60 JOT QUOTE B738 1h 48m

Route Details

Aircraft Information
Primary: Boeing 737-800BCF
Backup: Not Available
Route Data
Distance: 643nm
Sched. Duration: 1h 55m
Avg. Duration: 1h 74m (+19m)
Times Flown: 2
Recm'd Route: PTW SARAA RAV PSB J60 JOT QUOTE
Planned Altitude: 30,000ft
Origin Wx: KPHL 270154Z 09011KT 10SM OVC007 08/06 A2971 RMK AO2 SLP061 T00780056
Dest. Wx: KRFD 270154Z 32008KT 10SM OVC046 M02/M11 A3014 RMK AO2 SLP218 T10221106
Notes:

Financial History
Total Freight: 72,865lbs
Average Load: 36,433lbs/flt
Fuel Used: 20,831lbs
Avg. Fuel Used: 10,416lbs/flt
Fuel Expense: $18,748
Avg. Fuel Expense: $9,374
Avg. Fuel Cost: $0.90/lbs
Total Gross Income: $91,081
Pilot Pay: $458
Total Expenses: $9,941
Total Revenue: $61,484
Average Revenue: $45,540.63